createdAt,value
2023-05-02T08:11:13.486Z,1015.87
2023-05-02T08:11:43.409Z,1015.80
2023-05-02T08:12:13.387Z,1015.82
2023-05-02T08:12:51.578Z,1015.84
2023-05-02T08:13:13.326Z,1015.87
2023-05-02T08:13:43.314Z,1015.88
2023-05-02T08:14:13.263Z,1015.90
2023-05-02T08:14:43.238Z,1015.84
2023-05-02T08:15:13.183Z,1015.86
2023-05-02T08:15:43.169Z,1015.85
2023-05-02T08:16:13.252Z,1015.83
2023-05-02T08:16:46.066Z,1015.89
2023-05-02T08:17:13.011Z,1015.97
2023-05-02T08:17:42.951Z,1015.96
2023-05-02T08:18:12.998Z,1015.95
2023-05-02T08:18:42.852Z,1015.95
2023-05-02T08:19:12.788Z,1015.94
2023-05-02T08:19:42.737Z,1015.94
2023-05-02T08:20:12.696Z,1015.96
2023-05-02T08:20:42.639Z,1015.91
2023-05-02T08:21:12.586Z,1015.94
2023-05-02T08:21:42.553Z,1015.96
2023-05-02T08:22:12.489Z,1015.99
2023-05-02T08:22:42.450Z,1015.98
2023-05-02T08:23:12.415Z,1015.99
2023-05-02T08:23:42.357Z,1016.02
2023-05-02T08:24:12.306Z,1016.02
2023-05-02T08:24:42.264Z,1016.04
2023-05-02T08:25:12.214Z,1016.11
2023-05-02T08:25:42.161Z,1016.10
2023-05-02T08:26:12.104Z,1016.12
2023-05-02T08:26:42.194Z,1016.10
2023-05-02T08:27:12.010Z,1016.12
2023-05-02T08:27:41.971Z,1016.10
2023-05-02T08:28:11.916Z,1016.11
2023-05-02T08:28:41.873Z,1016.14
2023-05-02T08:29:11.871Z,1016.15
2023-05-02T08:29:41.777Z,1016.18
2023-05-02T08:30:11.729Z,1016.12
2023-05-02T08:30:41.669Z,1016.16
2023-05-02T08:31:11.667Z,1016.12
2023-05-02T08:31:41.605Z,1016.18
2023-05-02T08:32:11.579Z,1016.19
2023-05-02T08:32:41.501Z,1016.16
2023-05-02T08:33:11.461Z,1016.22
2023-05-02T08:33:41.382Z,1016.17
2023-05-02T08:34:11.318Z,1016.17
2023-05-02T08:34:41.260Z,1016.22
2023-05-02T08:35:11.205Z,1016.22
2023-05-02T08:35:41.171Z,1016.21
2023-05-02T08:36:11.097Z,1016.17
2023-05-02T08:36:41.055Z,1016.23
2023-05-02T08:37:11.004Z,1016.26
2023-05-02T08:37:40.968Z,1016.22
2023-05-02T08:38:10.915Z,1016.24
2023-05-02T08:38:40.884Z,1016.22
2023-05-02T08:39:10.808Z,1016.20
2023-05-02T08:39:40.762Z,1016.26
2023-05-02T08:40:10.718Z,1016.23
2023-05-02T08:40:42.733Z,1016.22
2023-05-02T08:41:10.607Z,1016.22
2023-05-02T08:41:40.567Z,1016.26
2023-05-02T08:42:10.577Z,1016.22
2023-05-02T08:42:40.483Z,1016.23
2023-05-02T08:43:10.405Z,1016.25
2023-05-02T08:43:40.360Z,1016.30
2023-05-02T08:44:10.305Z,1016.26
2023-05-02T08:44:40.263Z,1016.25
2023-05-02T08:45:10.202Z,1016.27
2023-05-02T08:45:40.175Z,1016.27
2023-05-02T08:46:10.107Z,1016.27
2023-05-02T08:46:40.101Z,1016.28
2023-05-02T08:47:10.017Z,1016.28
2023-05-02T08:47:39.993Z,1016.26
2023-05-02T08:48:09.969Z,1016.28
2023-05-02T08:48:39.859Z,1016.27
2023-05-02T08:49:09.809Z,1016.27
2023-05-02T08:49:39.769Z,1016.28
2023-05-02T08:50:09.704Z,1016.28
2023-05-02T08:50:39.666Z,1016.30
2023-05-02T08:51:09.621Z,1016.32
2023-05-02T08:51:41.311Z,1016.32
2023-05-02T08:52:09.528Z,1016.34
2023-05-02T08:52:39.488Z,1016.32
2023-05-02T08:53:09.420Z,1016.39
2023-05-02T08:53:39.396Z,1016.33
2023-05-02T08:54:09.333Z,1016.35
2023-05-02T08:54:39.288Z,1016.37
2023-05-02T08:55:09.270Z,1016.36
2023-05-02T08:55:39.207Z,1016.40
2023-05-02T08:56:09.152Z,1016.38
2023-05-02T08:56:39.119Z,1016.40
2023-05-02T08:57:09.069Z,1016.42
2023-05-02T08:57:39.048Z,1016.45
2023-05-02T08:58:08.969Z,1016.46
2023-05-02T08:58:38.939Z,1016.43
2023-05-02T08:59:08.867Z,1016.46
2023-05-02T08:59:38.836Z,1016.46
2023-05-02T09:00:08.808Z,1016.44
2023-05-02T09:00:38.738Z,1016.47
2023-05-02T09:01:08.731Z,1016.50
2023-05-02T09:01:38.757Z,1016.49
2023-05-02T09:02:08.601Z,1016.48
2023-05-02T09:02:38.656Z,1016.53
2023-05-02T09:03:08.555Z,1016.55
2023-05-02T09:03:38.461Z,1016.51
2023-05-02T09:04:08.460Z,1016.54
2023-05-02T09:04:38.397Z,1016.55
2023-05-02T09:05:08.328Z,1016.52
2023-05-02T09:05:38.270Z,1016.53
2023-05-02T09:06:08.281Z,1016.56
2023-05-02T09:06:38.248Z,1016.54
2023-05-02T09:07:08.703Z,1016.52
2023-05-02T09:07:38.079Z,1016.56
2023-05-02T09:08:08.055Z,1016.56
2023-05-02T09:08:37.980Z,1016.63
2023-05-02T09:09:07.947Z,1016.61
2023-05-02T09:09:37.892Z,1016.65
2023-05-02T09:10:07.854Z,1016.62
2023-05-02T09:10:37.809Z,1016.62
2023-05-02T09:11:07.761Z,1016.57
2023-05-02T09:11:37.709Z,1016.63
2023-05-02T09:12:07.701Z,1016.67
2023-05-02T09:12:37.622Z,1016.66
2023-05-02T09:13:07.640Z,1016.67
2023-05-02T09:13:37.543Z,1016.69
2023-05-02T09:14:07.494Z,1016.67
2023-05-02T09:14:37.433Z,1016.66
2023-05-02T09:15:07.390Z,1016.71
2023-05-02T09:15:37.341Z,1016.70
2023-05-02T09:16:07.331Z,1016.71
2023-05-02T09:16:37.260Z,1016.67
2023-05-02T09:17:07.325Z,1016.68
2023-05-02T09:17:37.177Z,1016.70
2023-05-02T09:18:07.166Z,1016.70
2023-05-02T09:18:37.061Z,1016.74
2023-05-02T09:19:07.023Z,1016.70
2023-05-02T09:19:36.968Z,1016.69
2023-05-02T09:20:06.944Z,1016.77
2023-05-02T09:20:36.893Z,1016.73
2023-05-02T09:21:06.837Z,1016.71
2023-05-02T09:21:36.788Z,1016.74
2023-05-02T09:22:06.754Z,1016.74
2023-05-02T09:22:36.688Z,1016.74
2023-05-02T09:23:06.647Z,1016.75
2023-05-02T09:23:36.617Z,1016.77
2023-05-02T09:24:06.588Z,1016.78
2023-05-02T09:24:36.498Z,1016.77
2023-05-02T09:25:06.461Z,1016.78
2023-05-02T09:25:36.404Z,1016.76
2023-05-02T09:26:06.364Z,1016.80
2023-05-02T09:26:36.304Z,1016.81
2023-05-02T09:27:06.283Z,1016.82
2023-05-02T09:27:36.205Z,1016.79
2023-05-02T09:28:06.179Z,1016.79
2023-05-02T09:28:36.143Z,1016.79
2023-05-02T09:29:06.099Z,1016.81
2023-05-02T09:29:36.519Z,1016.80
2023-05-02T09:30:05.993Z,1016.82
2023-05-02T09:30:35.982Z,1016.79
2023-05-02T09:31:06.004Z,1016.82
2023-05-02T09:32:05.916Z,1016.83
2023-05-02T09:32:35.753Z,1016.80
2023-05-02T09:33:05.735Z,1016.82
2023-05-02T09:33:35.652Z,1016.82
2023-05-02T09:34:05.606Z,1016.84
2023-05-02T09:34:35.567Z,1016.83
2023-05-02T09:35:05.519Z,1016.84
2023-05-02T09:35:35.462Z,1016.84
2023-05-02T09:36:05.418Z,1016.81
2023-05-02T09:36:35.383Z,1016.79
2023-05-02T09:37:05.331Z,1016.80
2023-05-02T09:37:35.275Z,1016.79
2023-05-02T09:38:05.239Z,1016.81
2023-05-02T09:38:35.182Z,1016.84
2023-05-02T09:39:05.140Z,1016.79
2023-05-02T09:39:35.106Z,1016.84
2023-05-02T09:40:05.040Z,1016.82
2023-05-02T09:40:34.987Z,1016.87
2023-05-02T09:41:04.954Z,1016.84
2023-05-02T09:41:34.905Z,1016.88
2023-05-02T09:42:04.872Z,1016.85
2023-05-02T09:42:34.802Z,1016.86
2023-05-02T09:43:04.765Z,1016.87
2023-05-02T09:43:34.721Z,1016.91
2023-05-02T09:44:04.707Z,1016.94
2023-05-02T09:44:34.645Z,1016.93
2023-05-02T09:45:04.600Z,1016.88
2023-05-02T09:45:34.544Z,1016.94
2023-05-02T09:46:04.537Z,1016.91
2023-05-02T09:46:34.525Z,1016.91
2023-05-02T09:47:04.398Z,1016.88
2023-05-02T09:47:34.394Z,1016.91
2023-05-02T09:48:04.383Z,1016.89
2023-05-02T09:48:34.245Z,1016.88
2023-05-02T09:49:04.212Z,1016.96
2023-05-02T09:49:34.172Z,1016.88
2023-05-02T09:50:04.117Z,1016.90
2023-05-02T09:50:34.938Z,1016.90
2023-05-02T09:51:04.033Z,1016.91
2023-05-02T09:51:33.982Z,1016.92
2023-05-02T09:52:03.943Z,1016.87
